Time;durP1;ratioP1;P1;durP2;ratioP2;P2;SDS_P1;SDS_P2;PMS_P1;PMS_P2;Temp;Humidity;BMP_temperature;BMP_pressure;BME280_temperature;BME280_humidity;BME280_pressure;Samples;Min_cycle;Max_cycle;Signal;HPM_P1;HPM_P2
2023/07/09 00:01:18;;;;;;;5.82;3.85;;;;;;;;;;5021328;28;20091;-68
2023/07/09 00:03:48;;;;;;;4.13;3.72;;;;;;;;;;5027412;28;20037;-68
2023/07/09 00:06:14;;;;;;;5.13;3.60;;;;;;;;;;5018709;28;20045;-68
2023/07/09 00:08:43;;;;;;;6.22;3.85;;;;;;;;;;5023294;28;21367;-68
2023/07/09 00:11:09;;;;;;;4.82;3.80;;;;;;;;;;5029677;28;20056;-68
2023/07/09 00:13:34;;;;;;;4.70;3.70;;;;;;;;;;5017960;28;20033;-68
2023/07/09 00:16:02;;;;;;;9.30;4.00;;;;;;;;;;5029904;28;20053;-68
2023/07/09 00:18:28;;;;;;;5.07;3.70;;;;;;;;;;5024577;28;20754;-66
2023/07/09 00:20:54;;;;;;;7.38;3.75;;;;;;;;;;5025393;28;20044;-67
2023/07/09 00:23:19;;;;;;;6.00;3.83;;;;;;;;;;5023622;28;20042;-66
2023/07/09 00:25:45;;;;;;;5.78;3.55;;;;;;;;;;5024700;28;20048;-66
2023/07/09 00:28:17;;;;;;;5.00;3.85;;;;;;;;;;5023364;28;20037;-66
2023/07/09 00:30:48;;;;;;;4.10;3.70;;;;;;;;;;5024719;28;20043;-66
2023/07/09 00:33:16;;;;;;;3.90;3.50;;;;;;;;;;5020812;28;20053;-66
2023/07/09 00:35:46;;;;;;;3.65;3.35;;;;;;;;;;5023193;28;20064;-66
2023/07/09 00:38:21;;;;;;;4.38;3.90;;;;;;;;;;5037054;28;20041;-66
2023/07/09 00:40:59;;;;;;;4.30;3.90;;;;;;;;;;5019752;28;20025;-66
2023/07/09 00:43:29;;;;;;;4.03;3.43;;;;;;;;;;5020323;28;20034;-65
2023/07/09 00:46:27;;;;;;;4.45;3.45;;;;;;;;;;5036271;28;20108;-64
2023/07/09 00:48:59;;;;;;;5.55;4.07;;;;;;;;;;4990236;28;20051;-64
2023/07/09 00:51:27;;;;;;;7.45;3.85;;;;;;;;;;5017143;28;20108;-64
2023/07/09 00:53:58;;;;;;;4.03;3.63;;;;;;;;;;5028028;28;20040;-64
2023/07/09 00:56:38;;;;;;;6.28;4.28;;;;;;;;;;5022505;28;20627;-64
2023/07/09 00:59:09;;;;;;;6.82;4.18;;;;;;;;;;5033265;28;20363;-64
2023/07/09 01:01:35;;;;;;;4.30;3.90;;;;;;;;;;5045431;28;20029;-64
2023/07/09 01:04:03;;;;;;;5.05;3.95;;;;;;;;;;5037096;28;20063;-64
2023/07/09 01:06:45;;;;;;;6.38;4.40;;;;;;;;;;5022712;28;20055;-64
2023/07/09 01:09:12;;;;;;;5.10;4.22;;;;;;;;;;5031699;28;20037;-64
2023/07/09 01:11:38;;;;;;;4.97;4.30;;;;;;;;;;5041408;28;20033;-64
2023/07/09 01:14:07;;;;;;;4.68;4.15;;;;;;;;;;5026343;28;20041;-64
2023/07/09 01:16:39;;;;;;;4.07;3.78;;;;;;;;;;5040474;28;20157;-64
2023/07/09 01:19:06;;;;;;;7.75;4.18;;;;;;;;;;5033724;28;20045;-64
2023/07/09 01:21:32;;;;;;;4.65;3.90;;;;;;;;;;5039172;28;20037;-64
2023/07/09 01:24:10;;;;;;;4.60;4.10;;;;;;;;;;5030014;28;20079;-64
2023/07/09 01:26:38;;;;;;;5.50;4.32;;;;;;;;;;5031994;28;20045;-64
2023/07/09 01:29:04;;;;;;;8.85;3.90;;;;;;;;;;5026238;28;20116;-64
2023/07/09 01:31:29;;;;;;;8.57;4.05;;;;;;;;;;5023168;28;20572;-64
2023/07/09 01:33:55;;;;;;;4.45;3.95;;;;;;;;;;5023833;28;20037;-64
2023/07/09 01:36:22;;;;;;;9.45;4.45;;;;;;;;;;5025139;28;20033;-64
2023/07/09 01:38:49;;;;;;;6.30;4.20;;;;;;;;;;5025365;28;20395;-64
2023/07/09 01:41:14;;;;;;;4.97;3.83;;;;;;;;;;5023342;28;20120;-64
2023/07/09 01:43:42;;;;;;;6.60;4.30;;;;;;;;;;5028957;28;20536;-63
2023/07/09 01:46:08;;;;;;;6.20;4.50;;;;;;;;;;5047388;28;20037;-64
2023/07/09 01:48:40;;;;;;;5.00;4.18;;;;;;;;;;5024612;28;20045;-64
2023/07/09 01:51:16;;;;;;;6.40;4.20;;;;;;;;;;5025363;28;20461;-64
2023/07/09 01:53:44;;;;;;;5.50;3.88;;;;;;;;;;5024337;28;20036;-64
2023/07/09 01:56:10;;;;;;;4.68;4.07;;;;;;;;;;5020353;28;20041;-63
2023/07/09 01:58:41;;;;;;;7.72;4.05;;;;;;;;;;5022279;28;20103;-64
2023/07/09 02:01:08;;;;;;;6.05;3.83;;;;;;;;;;5023300;28;20489;-64
2023/07/09 02:03:34;;;;;;;6.82;4.38;;;;;;;;;;5023498;28;20038;-63
2023/07/09 02:06:02;;;;;;;7.40;4.28;;;;;;;;;;5014894;28;20114;-63
2023/07/09 02:08:28;;;;;;;5.53;4.28;;;;;;;;;;5026661;28;20045;-64
2023/07/09 02:10:54;;;;;;;5.95;4.45;;;;;;;;;;5032766;28;20038;-63
2023/07/09 02:13:19;;;;;;;5.30;4.25;;;;;;;;;;5036122;28;20464;-64
2023/07/09 02:15:45;;;;;;;4.93;3.85;;;;;;;;;;5021985;28;20111;-64
2023/07/09 02:18:14;;;;;;;4.95;4.13;;;;;;;;;;5034572;28;20032;-64
2023/07/09 02:20:41;;;;;;;6.13;4.72;;;;;;;;;;5025098;28;20481;-64
2023/07/09 02:23:08;;;;;;;8.80;4.47;;;;;;;;;;5032234;28;20083;-64
2023/07/09 02:25:34;;;;;;;5.60;4.55;;;;;;;;;;5024973;28;20033;-64
2023/07/09 02:28:00;;;;;;;8.85;4.65;;;;;;;;;;5024961;28;20061;-64
2023/07/09 02:30:25;;;;;;;6.55;4.75;;;;;;;;;;5024194;28;20067;-64
2023/07/09 02:32:53;;;;;;;5.53;4.63;;;;;;;;;;5021295;28;20048;-64
2023/07/09 02:35:20;;;;;;;5.22;4.35;;;;;;;;;;5023832;28;20116;-64
2023/07/09 02:37:46;;;;;;;6.05;4.20;;;;;;;;;;5039759;28;20080;-64
2023/07/09 02:40:12;;;;;;;8.07;4.50;;;;;;;;;;5023309;28;20029;-63
2023/07/09 02:42:37;;;;;;;6.10;4.35;;;;;;;;;;5040335;28;20619;-64
2023/07/09 02:45:04;;;;;;;6.40;4.10;;;;;;;;;;5023752;28;20116;-64
2023/07/09 02:47:31;;;;;;;5.72;4.30;;;;;;;;;;5021407;28;20486;-64
2023/07/09 02:49:58;;;;;;;9.23;4.70;;;;;;;;;;5047474;28;20175;-64
2023/07/09 02:52:23;;;;;;;4.57;3.75;;;;;;;;;;5025696;28;20520;-64
2023/07/09 02:54:49;;;;;;;6.07;4.68;;;;;;;;;;5024507;28;20045;-64
2023/07/09 02:57:15;;;;;;;4.80;4.38;;;;;;;;;;5021847;28;20069;-64
2023/07/09 02:59:41;;;;;;;7.10;4.35;;;;;;;;;;5024632;28;20919;-64
2023/07/09 03:02:06;;;;;;;4.72;4.03;;;;;;;;;;5037004;28;20045;-64
2023/07/09 03:04:32;;;;;;;5.10;4.60;;;;;;;;;;5018836;28;20270;-64
2023/07/09 03:06:59;;;;;;;4.85;4.35;;;;;;;;;;5024355;28;20041;-64
2023/07/09 03:09:25;;;;;;;5.05;4.55;;;;;;;;;;5022949;28;20044;-64
2023/07/09 03:11:51;;;;;;;5.38;4.57;;;;;;;;;;5022195;28;20041;-64
2023/07/09 03:14:17;;;;;;;6.18;4.43;;;;;;;;;;5024583;28;20065;-64
2023/07/09 03:16:42;;;;;;;5.15;4.18;;;;;;;;;;5024722;28;20040;-64
2023/07/09 03:19:08;;;;;;;5.95;4.75;;;;;;;;;;5034304;28;20049;-64
2023/07/09 03:21:34;;;;;;;7.07;4.85;;;;;;;;;;5021350;28;20069;-64
2023/07/09 03:23:59;;;;;;;4.78;4.28;;;;;;;;;;5023306;28;20100;-64
2023/07/09 03:26:25;;;;;;;5.60;4.90;;;;;;;;;;5039644;28;20042;-64
2023/07/09 03:28:52;;;;;;;6.10;4.43;;;;;;;;;;5020080;28;20129;-64
2023/07/09 03:31:18;;;;;;;5.32;4.10;;;;;;;;;;5024008;28;20033;-64
2023/07/09 03:33:47;;;;;;;5.80;4.55;;;;;;;;;;5021256;28;20168;-64
2023/07/09 03:36:12;;;;;;;7.28;5.07;;;;;;;;;;5035111;28;20105;-64
2023/07/09 03:38:38;;;;;;;6.97;4.63;;;;;;;;;;5023976;28;20140;-64
2023/07/09 03:41:03;;;;;;;5.95;4.40;;;;;;;;;;5023223;28;20026;-64
2023/07/09 03:43:29;;;;;;;6.75;5.10;;;;;;;;;;5027970;28;20032;-64
2023/07/09 03:45:55;;;;;;;12.43;4.90;;;;;;;;;;5038861;28;20045;-63
2023/07/09 03:48:20;;;;;;;6.93;4.78;;;;;;;;;;5027580;28;20052;-64
2023/07/09 03:50:48;;;;;;;7.38;4.95;;;;;;;;;;5025110;28;20033;-64
2023/07/09 03:53:14;;;;;;;6.90;4.28;;;;;;;;;;5027614;28;20065;-64
2023/07/09 03:55:40;;;;;;;5.55;4.40;;;;;;;;;;5026468;28;20121;-64
2023/07/09 03:58:06;;;;;;;5.80;4.43;;;;;;;;;;5026027;28;20056;-64
2023/07/09 04:00:33;;;;;;;5.07;4.35;;;;;;;;;;5024765;28;20029;-64
2023/07/09 04:02:59;;;;;;;7.70;4.80;;;;;;;;;;5032319;28;20117;-64
2023/07/09 04:05:26;;;;;;;5.93;4.60;;;;;;;;;;5025256;28;20025;-64
2023/07/09 04:07:52;;;;;;;6.43;4.53;;;;;;;;;;5027402;28;20635;-64
2023/07/09 04:10:18;;;;;;;9.18;4.30;;;;;;;;;;5032735;28;20047;-64
2023/07/09 04:12:44;;;;;;;6.03;4.85;;;;;;;;;;5032120;28;20035;-66
2023/07/09 04:15:12;;;;;;;7.45;5.10;;;;;;;;;;5028099;28;20029;-65
2023/07/09 04:17:39;;;;;;;6.45;4.88;;;;;;;;;;5035939;28;20029;-66
2023/07/09 04:20:07;;;;;;;4.68;4.25;;;;;;;;;;5027597;28;20037;-66
2023/07/09 04:22:34;;;;;;;6.32;4.70;;;;;;;;;;5026543;28;20128;-66
2023/07/09 04:24:59;;;;;;;6.10;4.50;;;;;;;;;;5026770;28;20030;-66
2023/07/09 04:27:27;;;;;;;8.55;4.70;;;;;;;;;;5027086;28;20423;-66
2023/07/09 04:29:53;;;;;;;5.53;4.55;;;;;;;;;;5026643;28;20038;-66
2023/07/09 04:32:19;;;;;;;5.38;4.40;;;;;;;;;;5025081;28;20045;-66
2023/07/09 04:34:45;;;;;;;6.57;4.53;;;;;;;;;;5027336;28;20033;-66
2023/07/09 04:37:11;;;;;;;6.25;4.93;;;;;;;;;;5026012;28;20036;-66
2023/07/09 04:39:37;;;;;;;5.85;4.78;;;;;;;;;;5026825;28;20022;-66
2023/07/09 04:42:05;;;;;;;5.68;4.70;;;;;;;;;;5026424;28;20091;-68
2023/07/09 04:44:31;;;;;;;5.88;5.10;;;;;;;;;;5021825;28;20045;-68
2023/07/09 04:46:56;;;;;;;6.93;4.38;;;;;;;;;;5028794;28;20025;-68
2023/07/09 04:49:22;;;;;;;5.05;4.40;;;;;;;;;;5026017;28;20782;-68
2023/07/09 04:51:47;;;;;;;5.60;4.50;;;;;;;;;;5018657;28;20390;-68
2023/07/09 04:54:14;;;;;;;5.60;4.60;;;;;;;;;;5024233;28;20814;-68
2023/07/09 04:56:44;;;;;;;5.38;4.68;;;;;;;;;;5023416;28;20433;-68
2023/07/09 04:59:11;;;;;;;7.95;4.75;;;;;;;;;;5016846;28;20037;-68
2023/07/09 05:01:38;;;;;;;6.47;5.10;;;;;;;;;;5018622;28;20065;-68
2023/07/09 05:04:04;;;;;;;5.88;4.50;;;;;;;;;;5022291;28;20049;-68
2023/07/09 05:06:30;;;;;;;6.15;4.68;;;;;;;;;;5019641;28;20116;-68
2023/07/09 05:08:55;;;;;;;4.93;4.43;;;;;;;;;;5022823;28;20717;-68
2023/07/09 05:11:21;;;;;;;6.38;4.65;;;;;;;;;;5019393;28;20428;-68
2023/07/09 05:13:47;;;;;;;6.18;4.80;;;;;;;;;;5022216;28;20065;-68
2023/07/09 05:16:14;;;;;;;6.82;4.38;;;;;;;;;;5026214;28;20041;-69
2023/07/09 05:18:39;;;;;;;6.13;5.18;;;;;;;;;;5025370;28;20045;-68
2023/07/09 05:21:05;;;;;;;5.95;4.65;;;;;;;;;;5024511;28;20041;-68
2023/07/09 05:23:30;;;;;;;5.50;4.63;;;;;;;;;;5026298;28;20056;-69
2023/07/09 05:25:57;;;;;;;6.30;4.95;;;;;;;;;;5026155;28;20048;-69
2023/07/09 05:28:23;;;;;;;4.97;4.47;;;;;;;;;;5025628;28;20400;-68
2023/07/09 05:30:49;;;;;;;5.80;4.80;;;;;;;;;;5022997;28;20029;-68
2023/07/09 05:33:15;;;;;;;6.10;4.70;;;;;;;;;;5026723;28;20545;-68
2023/07/09 05:35:42;;;;;;;5.53;4.57;;;;;;;;;;5025585;28;20120;-68
2023/07/09 05:38:07;;;;;;;6.38;4.93;;;;;;;;;;5023836;28;20045;-68
2023/07/09 05:40:33;;;;;;;6.93;4.25;;;;;;;;;;5025388;28;20036;-68
2023/07/09 05:42:59;;;;;;;6.15;4.75;;;;;;;;;;5025255;28;20036;-68
2023/07/09 05:45:24;;;;;;;6.03;4.68;;;;;;;;;;5023527;28;20044;-68
2023/07/09 05:47:50;;;;;;;7.90;4.28;;;;;;;;;;5025413;28;20041;-68
2023/07/09 05:50:15;;;;;;;7.82;4.47;;;;;;;;;;5024871;28;20037;-68
2023/07/09 05:52:41;;;;;;;7.40;4.38;;;;;;;;;;5024691;28;20033;-68
2023/07/09 05:55:07;;;;;;;6.68;4.47;;;;;;;;;;5025856;28;20636;-68
2023/07/09 05:57:32;;;;;;;5.47;4.25;;;;;;;;;;5025800;28;20037;-68
2023/07/09 05:59:58;;;;;;;6.00;4.47;;;;;;;;;;5024188;28;20085;-68
2023/07/09 06:02:23;;;;;;;6.78;4.50;;;;;;;;;;5024461;28;20037;-68
2023/07/09 06:04:52;;;;;;;6.32;4.20;;;;;;;;;;5024588;28;20075;-68
2023/07/09 06:07:20;;;;;;;6.03;4.35;;;;;;;;;;5025548;28;20116;-68
2023/07/09 06:09:47;;;;;;;6.13;4.65;;;;;;;;;;5023601;28;20033;-68
2023/07/09 06:12:12;;;;;;;6.70;4.28;;;;;;;;;;5024365;28;20500;-68
2023/07/09 06:14:38;;;;;;;5.35;4.40;;;;;;;;;;5024039;28;20084;-68
2023/07/09 06:17:04;;;;;;;6.53;4.72;;;;;;;;;;5025178;28;20025;-68
2023/07/09 06:19:29;;;;;;;6.38;4.30;;;;;;;;;;5023178;28;20037;-68
2023/07/09 06:21:55;;;;;;;4.65;4.25;;;;;;;;;;5023880;28;20055;-69
2023/07/09 06:24:22;;;;;;;5.93;3.83;;;;;;;;;;5031698;28;20044;-69
2023/07/09 06:26:48;;;;;;;6.55;4.47;;;;;;;;;;5040577;28;20037;-68
2023/07/09 06:29:13;;;;;;;6.03;4.18;;;;;;;;;;5023580;28;20048;-68
2023/07/09 06:31:40;;;;;;;5.03;4.18;;;;;;;;;;5024580;28;20033;-68
2023/07/09 06:34:07;;;;;;;4.30;3.90;;;;;;;;;;5025356;28;20521;-67
2023/07/09 06:36:33;;;;;;;5.82;4.20;;;;;;;;;;5028364;28;20060;-67
2023/07/09 06:38:58;;;;;;;6.38;4.55;;;;;;;;;;5021692;28;20297;-67
2023/07/09 06:41:24;;;;;;;5.45;3.90;;;;;;;;;;5025125;28;20029;-67
2023/07/09 06:43:50;;;;;;;5.15;4.65;;;;;;;;;;5026816;28;20029;-67
2023/07/09 06:46:18;;;;;;;4.78;4.10;;;;;;;;;;5021746;28;20477;-67
2023/07/09 06:48:44;;;;;;;7.70;4.25;;;;;;;;;;5021056;28;20037;-67
2023/07/09 06:51:09;;;;;;;6.55;4.20;;;;;;;;;;5024641;28;20043;-67
2023/07/09 06:53:36;;;;;;;4.50;4.05;;;;;;;;;;5024508;28;20052;-67
2023/07/09 06:56:02;;;;;;;6.38;4.50;;;;;;;;;;5024843;28;20485;-67
2023/07/09 06:58:31;;;;;;;5.97;4.30;;;;;;;;;;5022524;28;20119;-67
2023/07/09 07:00:57;;;;;;;6.88;4.78;;;;;;;;;;5025123;28;20113;-67
2023/07/09 07:03:24;;;;;;;5.10;3.90;;;;;;;;;;5024413;28;20063;-67
2023/07/09 07:05:53;;;;;;;5.93;4.43;;;;;;;;;;5023402;28;20037;-67
2023/07/09 07:08:20;;;;;;;5.13;3.95;;;;;;;;;;5026313;28;20058;-68
2023/07/09 07:10:50;;;;;;;5.90;4.30;;;;;;;;;;5022724;28;20033;-67
2023/07/09 07:13:16;;;;;;;6.40;3.97;;;;;;;;;;5017432;28;20046;-67
2023/07/09 07:15:49;;;;;;;6.88;4.10;;;;;;;;;;5024163;28;20041;-67
2023/07/09 07:18:15;;;;;;;6.18;3.70;;;;;;;;;;5028380;28;20047;-67
2023/07/09 07:20:40;;;;;;;5.63;4.30;;;;;;;;;;5029900;28;20030;-67
2023/07/09 07:23:05;;;;;;;4.78;4.13;;;;;;;;;;5028577;28;20527;-67
2023/07/09 07:25:32;;;;;;;5.82;4.15;;;;;;;;;;5026248;28;20079;-67
2023/07/09 07:27:58;;;;;;;6.25;4.78;;;;;;;;;;5047185;28;20079;-67
2023/07/09 07:30:24;;;;;;;7.95;4.18;;;;;;;;;;5027379;28;20049;-68
2023/07/09 07:32:49;;;;;;;5.68;4.30;;;;;;;;;;5026599;28;20108;-68
2023/07/09 07:35:15;;;;;;;6.13;4.22;;;;;;;;;;5027987;28;20057;-69
2023/07/09 07:37:41;;;;;;;9.07;4.35;;;;;;;;;;5016663;28;20037;-69
2023/07/09 07:40:09;;;;;;;7.78;4.57;;;;;;;;;;5014283;28;20055;-70
2023/07/09 07:42:34;;;;;;;5.87;4.30;;;;;;;;;;5022991;28;20033;-69
2023/07/09 07:45:01;;;;;;;6.43;4.35;;;;;;;;;;5023769;28;20041;-70
2023/07/09 07:47:29;;;;;;;5.53;4.15;;;;;;;;;;5023811;28;20037;-71
2023/07/09 07:49:56;;;;;;;5.07;4.57;;;;;;;;;;5020248;28;20036;-69
2023/07/09 07:52:23;;;;;;;6.95;4.38;;;;;;;;;;5016202;28;20060;-70
2023/07/09 07:54:49;;;;;;;6.80;4.47;;;;;;;;;;5025267;28;20123;-69
2023/07/09 07:57:15;;;;;;;4.68;4.13;;;;;;;;;;5023753;28;20065;-70
2023/07/09 07:59:40;;;;;;;4.93;4.43;;;;;;;;;;5017800;28;20028;-70
2023/07/09 08:02:10;;;;;;;6.00;4.07;;;;;;;;;;5023856;28;20044;-69
2023/07/09 08:04:36;;;;;;;6.50;4.30;;;;;;;;;;5022247;28;20037;-71
2023/07/09 08:07:02;;;;;;;7.75;4.30;;;;;;;;;;5016583;28;20030;-70
2023/07/09 08:09:29;;;;;;;8.10;4.13;;;;;;;;;;5020497;28;20120;-71
2023/07/09 08:11:54;;;;;;;5.07;3.85;;;;;;;;;;5015899;28;20072;-70
2023/07/09 08:14:20;;;;;;;6.05;3.75;;;;;;;;;;5026227;28;20120;-70
2023/07/09 08:16:46;;;;;;;5.80;3.88;;;;;;;;;;5021907;28;20073;-72
2023/07/09 08:19:12;;;;;;;7.40;4.05;;;;;;;;;;5017295;28;20151;-71
2023/07/09 08:21:37;;;;;;;4.75;3.70;;;;;;;;;;5015922;28;20039;-71
2023/07/09 08:24:03;;;;;;;5.72;4.15;;;;;;;;;;5020034;28;20083;-73
2023/07/09 08:26:29;;;;;;;4.85;4.22;;;;;;;;;;5019675;28;20409;-72
2023/07/09 08:28:54;;;;;;;7.38;4.07;;;;;;;;;;5016832;28;20059;-71
2023/07/09 08:31:20;;;;;;;5.10;3.72;;;;;;;;;;5014648;28;20045;-70
2023/07/09 08:33:46;;;;;;;5.63;3.92;;;;;;;;;;5018301;28;20037;-71
2023/07/09 08:36:11;;;;;;;6.45;3.88;;;;;;;;;;5013704;28;20958;-69
2023/07/09 08:38:37;;;;;;;5.82;4.07;;;;;;;;;;5016893;28;20037;-70
2023/07/09 08:41:36;;;;;;;5.03;4.50;;;;;;;;;;5017961;28;20029;-72
2023/07/09 08:44:30;;;;;;;8.00;4.53;;;;;;;;;;5019826;28;20120;-72
2023/07/09 08:47:23;;;;;;;5.20;3.97;;;;;;;;;;5016583;28;20056;-72
2023/07/09 08:50:05;;;;;;;5.10;3.90;;;;;;;;;;5017973;28;20052;-69
2023/07/09 08:52:37;;;;;;;4.60;4.18;;;;;;;;;;5032547;28;20046;-70
2023/07/09 08:55:05;;;;;;;5.80;3.88;;;;;;;;;;5016223;28;20033;-69
2023/07/09 08:57:39;;;;;;;6.90;3.97;;;;;;;;;;5020906;28;20037;-69
2023/07/09 09:00:31;;;;;;;9.30;4.10;;;;;;;;;;5019896;28;20544;-69
2023/07/09 09:03:07;;;;;;;8.45;4.38;;;;;;;;;;5019206;28;20041;-69
2023/07/09 09:05:36;;;;;;;4.38;3.90;;;;;;;;;;5018969;28;20032;-70
2023/07/09 09:08:12;;;;;;;6.30;4.03;;;;;;;;;;5018047;28;20029;-69
2023/07/09 09:10:48;;;;;;;4.57;3.85;;;;;;;;;;5018613;28;20059;-69
2023/07/09 09:13:16;;;;;;;6.72;3.95;;;;;;;;;;5013183;28;20061;-69
2023/07/09 09:15:45;;;;;;;4.10;3.55;;;;;;;;;;5024075;28;20033;-69
2023/07/09 09:18:28;;;;;;;4.97;3.75;;;;;;;;;;5018690;28;20039;-70
2023/07/09 09:21:04;;;;;;;5.80;3.75;;;;;;;;;;5023172;28;20044;-69
2023/07/09 09:23:54;;;;;;;5.78;3.80;;;;;;;;;;5019129;28;20071;-69
2023/07/09 09:26:34;;;;;;;6.85;4.13;;;;;;;;;;5015465;28;20034;-69
2023/07/09 09:29:04;;;;;;;3.88;3.58;;;;;;;;;;5016226;28;20040;-69
2023/07/09 09:31:29;;;;;;;5.95;3.35;;;;;;;;;;5014457;28;20045;-69
2023/07/09 09:33:55;;;;;;;7.43;3.72;;;;;;;;;;5011144;28;20047;-69
2023/07/09 09:36:24;;;;;;;5.07;3.88;;;;;;;;;;5021150;28;20496;-69
2023/07/09 09:38:50;;;;;;;5.63;4.18;;;;;;;;;;5019597;28;20123;-69
2023/07/09 09:41:19;;;;;;;5.75;3.55;;;;;;;;;;5023833;28;20030;-69
2023/07/09 09:43:47;;;;;;;5.78;3.63;;;;;;;;;;5019475;28;20033;-69
2023/07/09 09:46:22;;;;;;;4.60;3.50;;;;;;;;;;5016441;28;20112;-69
2023/07/09 09:48:49;;;;;;;3.97;3.05;;;;;;;;;;5011910;28;20033;-69
2023/07/09 09:51:17;;;;;;;6.22;3.22;;;;;;;;;;5017175;28;20064;-69
2023/07/09 09:53:48;;;;;;;4.13;3.28;;;;;;;;;;5021496;28;20036;-69
2023/07/09 09:56:18;;;;;;;4.57;3.50;;;;;;;;;;5019210;28;20069;-69
2023/07/09 09:58:44;;;;;;;6.25;3.85;;;;;;;;;;5020575;28;20048;-69
2023/07/09 10:01:18;;;;;;;6.93;3.70;;;;;;;;;;5019311;28;20037;-69
2023/07/09 10:03:47;;;;;;;4.82;3.63;;;;;;;;;;5020969;28;20513;-69
2023/07/09 10:06:19;;;;;;;4.05;3.50;;;;;;;;;;5021407;28;20072;-69
2023/07/09 10:09:33;;;;;;;3.67;3.38;;;;;;;;;;5018825;28;20040;-69
2023/07/09 10:12:13;;;;;;;6.20;3.67;;;;;;;;;;5017355;28;20036;-70
2023/07/09 10:14:53;;;;;;;6.97;3.55;;;;;;;;;;5019365;28;20033;-68
2023/07/09 10:17:38;;;;;;;3.90;3.50;;;;;;;;;;5022041;28;20060;-68
2023/07/09 10:20:17;;;;;;;5.60;3.50;;;;;;;;;;5013340;28;20112;-69
2023/07/09 10:22:54;;;;;;;3.70;3.40;;;;;;;;;;5014815;28;20461;-68
2023/07/09 10:25:30;;;;;;;8.20;4.20;;;;;;;;;;5021313;28;20056;-69
2023/07/09 10:28:42;;;;;;;4.72;3.47;;;;;;;;;;5019971;28;20108;-68
2023/07/09 10:31:19;;;;;;;4.78;3.50;;;;;;;;;;5019973;28;20040;-68
2023/07/09 10:34:00;;;;;;;5.43;3.30;;;;;;;;;;5023164;28;20034;-70
2023/07/09 10:36:56;;;;;;;6.03;3.40;;;;;;;;;;5022622;28;20484;-70
2023/07/09 10:39:33;;;;;;;3.50;3.20;;;;;;;;;;5035894;28;20037;-70
2023/07/09 10:42:00;;;;;;;3.58;3.10;;;;;;;;;;5021897;28;20151;-69
2023/07/09 10:44:34;;;;;;;3.53;3.22;;;;;;;;;;5018037;28;20041;-70
2023/07/09 10:47:06;;;;;;;5.00;3.65;;;;;;;;;;5026805;28;20055;-70
2023/07/09 10:49:37;;;;;;;3.97;3.67;;;;;;;;;;5023909;28;20037;-69
2023/07/09 10:52:17;;;;;;;3.78;3.30;;;;;;;;;;5022500;28;20040;-69
2023/07/09 10:55:04;;;;;;;4.88;3.33;;;;;;;;;;5025646;28;20037;-69
2023/07/09 10:57:35;;;;;;;5.25;3.40;;;;;;;;;;5025687;28;20049;-68
2023/07/09 11:00:01;;;;;;;6.50;3.80;;;;;;;;;;5025230;28;20045;-70
2023/07/09 11:02:32;;;;;;;6.03;3.42;;;;;;;;;;5038744;28;20045;-69
2023/07/09 11:05:03;;;;;;;6.47;3.70;;;;;;;;;;5027005;28;20537;-69
2023/07/09 11:07:43;;;;;;;4.45;3.17;;;;;;;;;;5027700;28;20081;-72
2023/07/09 11:10:36;;;;;;;5.03;3.40;;;;;;;;;;5026289;28;20041;-71
2023/07/09 11:13:15;;;;;;;5.57;3.50;;;;;;;;;;5025031;28;20483;-71
2023/07/09 11:15:46;;;;;;;4.90;3.58;;;;;;;;;;5037261;28;20039;-72
2023/07/09 11:18:20;;;;;;;5.00;3.78;;;;;;;;;;5026569;28;20072;-68
2023/07/09 11:20:58;;;;;;;4.72;3.53;;;;;;;;;;5025615;28;20520;-68
2023/07/09 11:23:25;;;;;;;5.60;3.60;;;;;;;;;;5021377;28;20045;-68
2023/07/09 11:26:14;;;;;;;5.63;3.15;;;;;;;;;;5027776;28;20489;-67
2023/07/09 11:28:46;;;;;;;9.70;3.95;;;;;;;;;;5021526;28;20053;-67
2023/07/09 11:31:36;;;;;;;7.15;3.63;;;;;;;;;;5020435;28;20044;-67
2023/07/09 11:34:08;;;;;;;11.45;3.60;;;;;;;;;;5013302;28;20381;-68
2023/07/09 11:36:49;;;;;;;4.15;3.40;;;;;;;;;;5021666;28;20060;-68
2023/07/09 11:39:38;;;;;;;5.60;4.47;;;;;;;;;;5023056;28;20041;-68
2023/07/09 11:42:45;;;;;;;6.78;3.92;;;;;;;;;;5020983;28;20076;-68
2023/07/09 11:45:13;;;;;;;5.55;3.58;;;;;;;;;;5019317;28;20484;-68
2023/07/09 11:48:04;;;;;;;6.15;4.28;;;;;;;;;;5030610;28;20132;-69
2023/07/09 11:50:36;;;;;;;6.13;3.80;;;;;;;;;;5015758;28;20838;-69
2023/07/09 11:53:32;;;;;;;8.52;4.28;;;;;;;;;;5025975;28;20033;-69
2023/07/09 11:55:58;;;;;;;5.97;3.75;;;;;;;;;;5020777;28;20045;-69
2023/07/09 11:58:24;;;;;;;6.15;3.42;;;;;;;;;;5018254;28;20118;-69
2023/07/09 12:00:53;;;;;;;4.90;3.78;;;;;;;;;;5019735;28;20045;-69
2023/07/09 12:03:36;;;;;;;6.88;4.00;;;;;;;;;;5021411;28;20481;-69
2023/07/09 12:06:16;;;;;;;7.50;3.95;;;;;;;;;;5021074;28;20464;-68
2023/07/09 12:08:43;;;;;;;6.82;4.38;;;;;;;;;;5026273;28;20099;-68
2023/07/09 12:11:28;;;;;;;4.30;3.83;;;;;;;;;;5021973;28;20897;-68
2023/07/09 12:14:01;;;;;;;4.45;3.42;;;;;;;;;;5021102;28;20040;-68
2023/07/09 12:16:34;;;;;;;5.80;3.45;;;;;;;;;;5022006;28;20508;-68
2023/07/09 12:19:00;;;;;;;6.47;3.42;;;;;;;;;;5021283;28;20042;-68
2023/07/09 12:21:26;;;;;;;8.05;3.97;;;;;;;;;;5021201;28;20661;-68
2023/07/09 12:23:54;;;;;;;5.63;3.50;;;;;;;;;;5022454;28;20065;-68
2023/07/09 12:26:20;;;;;;;5.30;4.10;;;;;;;;;;5018410;28;20045;-69
2023/07/09 12:28:58;;;;;;;4.78;3.47;;;;;;;;;;5021099;28;20033;-68
2023/07/09 12:31:29;;;;;;;7.63;3.70;;;;;;;;;;5024542;28;20033;-68
2023/07/09 12:33:57;;;;;;;7.65;3.60;;;;;;;;;;5027341;28;20546;-69
2023/07/09 12:36:27;;;;;;;8.27;3.45;;;;;;;;;;5023287;28;20038;-68
2023/07/09 12:38:57;;;;;;;5.57;3.53;;;;;;;;;;5020793;28;21501;-69
2023/07/09 12:41:24;;;;;;;5.32;3.60;;;;;;;;;;5025156;28;20038;-68
2023/07/09 12:43:53;;;;;;;6.57;3.78;;;;;;;;;;5022236;28;20042;-69
2023/07/09 12:46:18;;;;;;;7.32;3.95;;;;;;;;;;5018590;28;20501;-69
2023/07/09 12:48:46;;;;;;;5.93;3.75;;;;;;;;;;5020908;28;20095;-69
2023/07/09 12:51:24;;;;;;;7.53;3.55;;;;;;;;;;5030961;28;20103;-69
2023/07/09 12:54:16;;;;;;;5.32;3.53;;;;;;;;;;5022429;28;20037;-69
2023/07/09 12:56:42;;;;;;;4.32;3.53;;;;;;;;;;5024047;28;20034;-69
2023/07/09 12:59:21;;;;;;;5.50;3.67;;;;;;;;;;5021083;28;20408;-69
2023/07/09 13:02:23;;;;;;;5.13;3.67;;;;;;;;;;5025659;28;20030;-69
2023/07/09 13:04:50;;;;;;;4.95;3.80;;;;;;;;;;5015166;28;20128;-68
2023/07/09 13:07:37;;;;;;;5.35;3.67;;;;;;;;;;5019969;28;20394;-68
2023/07/09 13:10:14;;;;;;;7.05;3.60;;;;;;;;;;5012099;28;20320;-69
2023/07/09 13:12:45;;;;;;;6.72;3.83;;;;;;;;;;5013804;28;20025;-68
2023/07/09 13:15:38;;;;;;;5.00;3.38;;;;;;;;;;5022406;28;20094;-69
2023/07/09 13:18:07;;;;;;;6.13;3.40;;;;;;;;;;5018481;28;20037;-69
2023/07/09 13:20:37;;;;;;;4.53;3.33;;;;;;;;;;5017018;28;20094;-68
2023/07/09 13:23:09;;;;;;;7.43;3.55;;;;;;;;;;5016601;28;20037;-68
2023/07/09 13:25:36;;;;;;;4.63;3.45;;;;;;;;;;5023913;28;20040;-72
2023/07/09 13:28:01;;;;;;;4.72;3.47;;;;;;;;;;5016208;28;20489;-69
2023/07/09 13:30:27;;;;;;;4.22;3.50;;;;;;;;;;5014984;28;20041;-69
2023/07/09 13:32:52;;;;;;;5.70;3.40;;;;;;;;;;5020932;28;20042;-74
2023/07/09 13:35:19;;;;;;;7.55;3.70;;;;;;;;;;5019289;28;20042;-70
2023/07/09 13:37:45;;;;;;;13.13;3.90;;;;;;;;;;5024234;28;20787;-69
2023/07/09 13:40:15;;;;;;;5.03;3.58;;;;;;;;;;5017506;28;20037;-68
2023/07/09 13:42:43;;;;;;;6.18;3.40;;;;;;;;;;5020389;28;20037;-70
2023/07/09 13:45:35;;;;;;;6.38;3.45;;;;;;;;;;5024908;28;20045;-71
2023/07/09 13:48:00;;;;;;;4.53;3.25;;;;;;;;;;5015430;28;20046;-71
2023/07/09 13:50:26;;;;;;;5.40;3.20;;;;;;;;;;5022894;28;20111;-72
2023/07/09 13:52:51;;;;;;;4.22;2.95;;;;;;;;;;5027186;28;20033;-72
2023/07/09 13:55:23;;;;;;;6.60;3.60;;;;;;;;;;5018247;28;20045;-66
2023/07/09 13:57:50;;;;;;;4.95;3.47;;;;;;;;;;5018232;28;20029;-69
2023/07/09 14:00:16;;;;;;;8.20;3.55;;;;;;;;;;5022721;28;20340;-72
2023/07/09 14:02:43;;;;;;;5.72;2.95;;;;;;;;;;5018559;28;20044;-71
2023/07/09 14:05:11;;;;;;;4.15;3.13;;;;;;;;;;5027405;28;20426;-72
2023/07/09 14:07:40;;;;;;;4.03;3.03;;;;;;;;;;5022625;28;20037;-70
2023/07/09 14:10:12;;;;;;;5.38;3.50;;;;;;;;;;5020084;28;20037;-69
2023/07/09 14:12:41;;;;;;;4.68;3.53;;;;;;;;;;5024745;28;20386;-69
2023/07/09 14:15:18;;;;;;;6.43;3.60;;;;;;;;;;5020544;28;21052;-69
2023/07/09 14:17:44;;;;;;;4.28;3.15;;;;;;;;;;5023426;28;20444;-69
2023/07/09 14:20:14;;;;;;;2.83;2.63;;;;;;;;;;5020454;28;20077;-69
2023/07/09 14:22:42;;;;;;;6.32;3.30;;;;;;;;;;5005710;28;20472;-68
2023/07/09 14:25:15;;;;;;;5.47;3.40;;;;;;;;;;5024324;28;20049;-69
2023/07/09 14:27:41;;;;;;;3.30;3.00;;;;;;;;;;5022974;28;20064;-69
2023/07/09 14:30:09;;;;;;;4.15;3.40;;;;;;;;;;5017265;28;20651;-70
2023/07/09 14:32:38;;;;;;;5.88;3.63;;;;;;;;;;5015056;28;20064;-68
2023/07/09 14:35:13;;;;;;;6.93;3.40;;;;;;;;;;5025250;28;20083;-69
2023/07/09 14:37:39;;;;;;;6.00;3.28;;;;;;;;;;5022417;28;20043;-68
2023/07/09 14:40:05;;;;;;;6.53;3.25;;;;;;;;;;5020434;28;20088;-68
2023/07/09 14:42:31;;;;;;;3.97;3.30;;;;;;;;;;5024645;28;20643;-66
2023/07/09 14:44:57;;;;;;;5.50;3.40;;;;;;;;;;5021617;28;20625;-66
2023/07/09 14:47:23;;;;;;;6.70;3.17;;;;;;;;;;5020378;28;20045;-68
2023/07/09 14:49:50;;;;;;;5.28;3.40;;;;;;;;;;5016518;28;20037;-67
2023/07/09 14:52:19;;;;;;;3.73;3.10;;;;;;;;;;5018855;28;20041;-68
2023/07/09 14:54:47;;;;;;;7.32;3.40;;;;;;;;;;5022331;28;20601;-66
2023/07/09 14:57:21;;;;;;;5.50;3.58;;;;;;;;;;5022090;28;20079;-66
2023/07/09 14:59:50;;;;;;;5.90;3.80;;;;;;;;;;5018722;28;20041;-66